createdAt,value
2018-06-25T00:01:55.281Z,8.27
2018-06-25T00:04:23.536Z,7.60
2018-06-25T00:06:51.852Z,7.73
2018-06-25T00:09:20.117Z,8.53
2018-06-25T00:11:48.484Z,10.07
2018-06-25T00:14:16.808Z,8.40
2018-06-25T00:16:45.074Z,8.20
2018-06-25T00:19:13.360Z,7.47
2018-06-25T00:21:41.632Z,8.93
2018-06-25T00:24:09.901Z,8.53
2018-06-25T00:26:38.164Z,10.30
2018-06-25T00:29:06.449Z,10.73
2018-06-25T00:31:34.689Z,8.83
2018-06-25T00:34:02.964Z,10.20
2018-06-25T00:36:31.266Z,12.30
2018-06-25T00:38:59.533Z,10.47
2018-06-25T00:41:27.795Z,10.17
2018-06-25T00:43:56.126Z,11.47
2018-06-25T00:46:24.401Z,10.37
2018-06-25T00:48:52.689Z,11.03
2018-06-25T00:51:20.940Z,10.37
2018-06-25T00:53:49.200Z,9.07
2018-06-25T00:56:17.465Z,9.50
2018-06-25T00:58:57.004Z,10.07
2018-06-25T01:01:25.268Z,8.97
2018-06-25T01:03:53.525Z,9.17
2018-06-25T01:06:21.769Z,8.67
2018-06-25T01:08:50.018Z,8.67
2018-06-25T01:11:18.302Z,9.27
2018-06-25T01:13:46.552Z,10.37
2018-06-25T01:16:14.827Z,10.50
2018-06-25T01:18:43.085Z,9.67
2018-06-25T01:21:11.361Z,9.13
2018-06-25T01:23:39.645Z,12.10
2018-06-25T01:26:07.904Z,14.10
2018-06-25T01:28:36.163Z,10.63
2018-06-25T01:31:04.426Z,11.37
2018-06-25T01:33:32.676Z,10.17
2018-06-25T01:36:00.938Z,10.73
2018-06-25T01:38:29.198Z,13.13
2018-06-25T01:40:57.457Z,13.27
2018-06-25T01:43:25.700Z,12.17
2018-06-25T01:45:53.955Z,11.87
2018-06-25T01:48:22.216Z,13.43
2018-06-25T01:50:50.464Z,13.60
2018-06-25T01:53:18.707Z,12.73
2018-06-25T01:55:46.978Z,12.03
2018-06-25T01:58:15.248Z,13.80
2018-06-25T02:00:43.508Z,11.77
2018-06-25T02:03:11.788Z,11.13
2018-06-25T02:05:40.061Z,10.67
2018-06-25T02:08:08.332Z,10.50
2018-06-25T02:10:36.606Z,10.33
2018-06-25T02:13:04.859Z,10.53
2018-06-25T02:15:33.153Z,10.50
2018-06-25T02:18:01.413Z,10.37
2018-06-25T02:20:29.690Z,11.07
2018-06-25T02:22:58.011Z,11.30
2018-06-25T02:25:26.204Z,10.73
2018-06-25T02:27:54.445Z,10.30
2018-06-25T02:30:22.705Z,10.20
2018-06-25T02:32:50.979Z,11.10
2018-06-25T02:35:19.233Z,10.77
2018-06-25T02:37:47.506Z,11.63
2018-06-25T02:40:15.757Z,12.17
2018-06-25T02:42:44.041Z,12.07
2018-06-25T02:45:12.337Z,11.30
2018-06-25T02:47:40.597Z,11.83
2018-06-25T02:50:08.860Z,11.83
2018-06-25T02:52:37.121Z,13.10
2018-06-25T02:55:05.474Z,11.87
2018-06-25T02:57:33.734Z,11.33
2018-06-25T03:00:02.012Z,14.37
2018-06-25T03:02:30.271Z,12.67
2018-06-25T03:04:58.550Z,13.10
2018-06-25T03:07:26.800Z,12.97
2018-06-25T03:09:55.048Z,12.67
2018-06-25T03:12:23.308Z,13.73
2018-06-25T03:14:51.581Z,13.50
2018-06-25T03:17:19.846Z,14.63
2018-06-25T03:19:48.112Z,13.00
2018-06-25T03:22:16.395Z,13.10
2018-06-25T03:24:44.655Z,14.63
2018-06-25T03:27:12.900Z,12.87
2018-06-25T03:29:41.164Z,12.27
2018-06-25T03:32:09.482Z,14.60
2018-06-25T03:34:37.719Z,10.83
2018-06-25T03:37:05.956Z,12.47
2018-06-25T03:39:34.221Z,13.97
2018-06-25T03:42:02.485Z,13.10
2018-06-25T03:44:30.840Z,11.83
2018-06-25T03:46:59.067Z,13.60
2018-06-25T03:49:27.358Z,12.37
2018-06-25T03:51:55.652Z,12.97
2018-06-25T03:54:23.909Z,12.80
2018-06-25T03:56:52.266Z,10.93
2018-06-25T03:59:20.512Z,11.10
2018-06-25T04:01:48.773Z,11.17
2018-06-25T04:04:17.032Z,11.47
2018-06-25T04:06:45.293Z,10.57
2018-06-25T04:09:13.567Z,11.00
2018-06-25T04:11:41.957Z,11.23
2018-06-25T04:14:10.448Z,11.40
2018-06-25T04:16:38.736Z,12.40
2018-06-25T04:19:06.988Z,11.17
2018-06-25T04:21:36.500Z,10.80
2018-06-25T04:24:04.826Z,10.50
2018-06-25T04:26:33.393Z,11.03
2018-06-25T04:29:02.181Z,12.43
2018-06-25T04:31:30.760Z,11.17
2018-06-25T04:33:59.317Z,12.40
2018-06-25T04:36:27.625Z,11.70
2018-06-25T04:38:55.891Z,10.07
2018-06-25T04:41:24.168Z,10.10
2018-06-25T04:43:52.489Z,11.80
2018-06-25T04:46:20.737Z,9.67
2018-06-25T04:48:49.005Z,9.13
2018-06-25T04:51:17.332Z,9.23
2018-06-25T04:53:45.589Z,13.73
2018-06-25T04:56:13.867Z,9.83
2018-06-25T04:58:42.117Z,13.13
2018-06-25T05:01:10.545Z,12.00
2018-06-25T05:03:38.839Z,11.00
2018-06-25T05:06:07.181Z,11.13
2018-06-25T05:08:35.429Z,9.97
2018-06-25T05:11:03.792Z,12.33
2018-06-25T05:13:32.044Z,10.30
2018-06-25T05:16:00.320Z,11.23
2018-06-25T05:18:28.573Z,12.03
2018-06-25T05:20:56.831Z,10.73
2018-06-25T05:23:25.135Z,12.80
2018-06-25T05:25:53.406Z,11.00
2018-06-25T05:28:21.665Z,12.50
2018-06-25T05:30:49.949Z,9.67
2018-06-25T05:33:18.221Z,9.20
2018-06-25T05:35:46.480Z,9.73
2018-06-25T05:38:14.738Z,10.13
2018-06-25T05:40:42.999Z,10.60
2018-06-25T05:43:11.274Z,9.37
2018-06-25T05:45:39.596Z,8.73
2018-06-25T05:48:07.860Z,9.17
2018-06-25T05:50:36.118Z,8.47
2018-06-25T05:53:04.364Z,9.90
2018-06-25T05:55:32.631Z,8.90
2018-06-25T05:58:00.912Z,8.57
2018-06-25T06:00:29.165Z,8.87
2018-06-25T06:02:57.507Z,9.07
2018-06-25T06:05:25.752Z,7.83
2018-06-25T06:07:54.000Z,8.60
2018-06-25T06:10:22.241Z,8.73
2018-06-25T06:12:50.504Z,7.33
2018-06-25T06:15:18.749Z,8.00
2018-06-25T06:17:47.017Z,8.53
2018-06-25T06:20:15.268Z,8.10
2018-06-25T06:22:43.526Z,7.53
2018-06-25T06:25:11.813Z,8.37
2018-06-25T06:27:40.061Z,9.50
2018-06-25T06:30:08.350Z,8.00
2018-06-25T06:32:36.609Z,7.47
2018-06-25T06:35:04.994Z,7.03
2018-06-25T06:37:33.257Z,7.57
2018-06-25T06:40:01.583Z,8.37
2018-06-25T06:42:29.772Z,6.90
2018-06-25T06:44:58.050Z,6.50
2018-06-25T06:47:26.301Z,6.67
2018-06-25T06:49:54.569Z,6.57
2018-06-25T06:52:22.838Z,8.33
2018-06-25T06:54:51.091Z,9.30
2018-06-25T06:57:19.332Z,6.17
2018-06-25T06:59:47.609Z,7.93
2018-06-25T07:02:15.874Z,6.50
2018-06-25T07:04:44.165Z,6.20
2018-06-25T07:07:13.061Z,6.97
2018-06-25T07:09:41.326Z,6.23
2018-06-25T07:12:09.600Z,7.30
2018-06-25T07:14:37.876Z,9.47
2018-06-25T07:17:06.165Z,6.53
2018-06-25T07:19:34.418Z,7.90
2018-06-25T07:22:02.705Z,7.90
2018-06-25T07:24:30.952Z,7.17
2018-06-25T07:26:59.208Z,7.13
2018-06-25T07:29:27.451Z,6.57
2018-06-25T07:31:55.737Z,6.70
2018-06-25T07:34:23.981Z,6.17
2018-06-25T07:36:52.249Z,6.70
2018-06-25T07:39:20.516Z,7.80
2018-06-25T07:41:48.808Z,7.67
2018-06-25T07:44:17.096Z,10.90
2018-06-25T07:46:45.373Z,10.87
2018-06-25T07:49:13.681Z,6.90
2018-06-25T07:51:41.936Z,8.47
2018-06-25T07:54:10.208Z,7.40
2018-06-25T07:56:38.460Z,8.10
2018-06-25T07:59:06.729Z,9.87
2018-06-25T08:01:34.973Z,7.70
2018-06-25T08:04:03.224Z,8.20
2018-06-25T08:06:31.489Z,8.27
2018-06-25T08:08:59.759Z,8.90
2018-06-25T08:11:28.073Z,7.60
2018-06-25T08:13:56.323Z,9.07
2018-06-25T08:16:24.553Z,7.43
2018-06-25T08:18:52.804Z,7.17
2018-06-25T08:21:21.069Z,6.17
2018-06-25T08:23:49.316Z,8.87
2018-06-25T08:26:17.575Z,6.80
2018-06-25T08:28:45.849Z,7.03
2018-06-25T08:31:14.117Z,5.43
2018-06-25T08:33:42.516Z,5.57
2018-06-25T08:36:10.741Z,6.80
2018-06-25T08:38:38.992Z,6.27
2018-06-25T08:41:07.357Z,4.70
2018-06-25T08:43:35.600Z,4.77
2018-06-25T08:46:03.893Z,7.00
2018-06-25T08:48:32.162Z,4.60
2018-06-25T08:51:00.431Z,5.03
2018-06-25T08:53:28.745Z,5.47
2018-06-25T08:55:57.047Z,4.37
2018-06-25T08:58:25.325Z,4.40
2018-06-25T09:00:53.589Z,7.20
2018-06-25T09:03:21.854Z,6.20
2018-06-25T09:05:50.088Z,4.77
2018-06-25T09:08:18.342Z,5.73
2018-06-25T09:10:46.596Z,7.70
2018-06-25T09:13:14.846Z,6.17
2018-06-25T09:15:43.093Z,8.17
2018-06-25T09:18:11.368Z,6.67
2018-06-25T09:20:39.605Z,7.03
2018-06-25T09:23:07.864Z,5.67
2018-06-25T09:25:36.108Z,5.33
2018-06-25T09:28:05.473Z,7.13
2018-06-25T09:30:33.706Z,4.37
2018-06-25T09:33:02.250Z,4.47
2018-06-25T09:35:30.522Z,3.63
2018-06-25T09:37:58.869Z,3.70
2018-06-25T09:40:27.129Z,5.10
2018-06-25T09:42:55.386Z,3.40
2018-06-25T09:45:23.677Z,3.87
2018-06-25T09:47:51.962Z,3.53
2018-06-25T09:50:20.243Z,4.07
2018-06-25T09:52:48.489Z,4.30
2018-06-25T09:55:16.776Z,5.43
2018-06-25T09:57:45.053Z,4.97
2018-06-25T10:00:17.569Z,3.53
2018-06-25T10:02:45.812Z,4.80
2018-06-25T10:05:14.075Z,4.37
2018-06-25T10:07:46.538Z,5.70
2018-06-25T10:10:14.800Z,3.97
2018-06-25T10:12:49.676Z,5.53
2018-06-25T10:15:18.087Z,4.60
2018-06-25T10:17:46.334Z,6.10
2018-06-25T10:20:14.728Z,5.40
2018-06-25T10:22:44.192Z,4.73
2018-06-25T10:25:13.283Z,6.03
2018-06-25T10:27:41.608Z,4.10
2018-06-25T10:30:10.037Z,5.00
2018-06-25T10:32:38.324Z,6.10
2018-06-25T10:35:06.597Z,4.80
2018-06-25T10:37:37.691Z,4.60
2018-06-25T10:40:06.585Z,5.27
2018-06-25T10:42:35.454Z,4.00
2018-06-25T10:45:03.752Z,4.23
2018-06-25T10:47:32.015Z,3.90
2018-06-25T10:50:00.241Z,2.93
2018-06-25T10:52:28.487Z,3.17
2018-06-25T10:54:56.735Z,3.10
2018-06-25T10:57:24.986Z,3.73
2018-06-25T10:59:53.433Z,4.00
2018-06-25T11:02:21.533Z,3.37
2018-06-25T11:04:49.793Z,4.07
2018-06-25T11:07:18.088Z,5.67
2018-06-25T11:09:46.310Z,4.67
2018-06-25T11:12:14.560Z,4.13
2018-06-25T11:14:42.809Z,4.07
2018-06-25T11:17:11.074Z,3.40
2018-06-25T11:19:39.328Z,4.93
2018-06-25T11:22:07.600Z,5.00
2018-06-25T11:24:35.866Z,3.77
2018-06-25T11:27:04.310Z,4.03
2018-06-25T11:29:32.479Z,3.43
2018-06-25T11:32:00.749Z,4.20
2018-06-25T11:34:29.000Z,3.63
2018-06-25T11:36:57.227Z,3.27
2018-06-25T11:39:25.480Z,2.20
2018-06-25T11:41:53.765Z,2.67
2018-06-25T11:44:21.988Z,3.93
2018-06-25T11:46:50.243Z,3.53
2018-06-25T11:49:18.504Z,2.17
2018-06-25T11:51:46.850Z,3.20
2018-06-25T11:54:15.073Z,3.20
2018-06-25T11:56:43.336Z,3.23
2018-06-25T11:59:11.573Z,2.97
2018-06-25T12:01:39.888Z,3.20
2018-06-25T12:04:08.120Z,3.40
2018-06-25T12:06:36.389Z,3.13
2018-06-25T12:09:06.716Z,4.37
2018-06-25T12:11:34.992Z,3.97
2018-06-25T12:14:03.307Z,3.07
2018-06-25T12:16:31.510Z,3.53
2018-06-25T12:19:00.074Z,4.03
2018-06-25T12:21:28.321Z,3.97
2018-06-25T12:23:56.725Z,5.03
2018-06-25T12:26:24.964Z,4.60
2018-06-25T12:28:53.229Z,3.90
2018-06-25T12:31:21.523Z,4.77
2018-06-25T12:33:49.797Z,3.57
2018-06-25T12:36:18.052Z,5.17
2018-06-25T12:38:46.856Z,4.70
2018-06-25T12:41:15.161Z,3.50
2018-06-25T12:43:43.416Z,3.73
2018-06-25T12:46:11.673Z,3.57
2018-06-25T12:48:39.938Z,3.10
2018-06-25T12:51:08.196Z,5.03
2018-06-25T12:53:36.432Z,2.90
2018-06-25T12:56:04.692Z,3.93
2018-06-25T12:58:32.939Z,3.37
2018-06-25T13:01:01.212Z,2.90
2018-06-25T13:03:29.475Z,5.17
2018-06-25T13:05:57.740Z,2.73
2018-06-25T13:08:26.008Z,4.50
2018-06-25T13:10:54.846Z,5.40
2018-06-25T13:13:23.089Z,3.77
2018-06-25T13:15:51.324Z,3.30
2018-06-25T13:18:19.629Z,3.23
2018-06-25T13:20:47.972Z,2.70
2018-06-25T13:23:16.239Z,3.80
2018-06-25T13:25:44.727Z,4.00
2018-06-25T13:28:12.957Z,3.93
2018-06-25T13:30:41.253Z,5.27
2018-06-25T13:33:09.583Z,4.47
2018-06-25T13:35:37.999Z,3.07
2018-06-25T13:38:06.322Z,2.83
2018-06-25T13:40:34.542Z,13.23
2018-06-25T13:43:02.793Z,3.70
2018-06-25T13:45:31.097Z,4.70
2018-06-25T13:47:59.316Z,4.00
2018-06-25T13:50:27.573Z,2.97
2018-06-25T13:52:55.813Z,2.83
2018-06-25T13:55:24.052Z,3.53
2018-06-25T13:57:52.396Z,3.47
2018-06-25T14:00:20.687Z,2.73
2018-06-25T14:02:48.944Z,6.70
2018-06-25T14:05:17.206Z,3.27
2018-06-25T14:07:45.456Z,3.97
2018-06-25T14:10:13.704Z,3.13
2018-06-25T14:12:41.957Z,3.77
2018-06-25T14:15:10.323Z,3.67
2018-06-25T14:17:38.610Z,4.67
2018-06-25T14:20:06.981Z,2.40
2018-06-25T14:22:35.326Z,2.57
2018-06-25T14:25:03.696Z,3.17
2018-06-25T14:27:36.184Z,2.20
2018-06-25T14:30:09.885Z,3.30
2018-06-25T14:32:38.137Z,2.87
2018-06-25T14:35:11.785Z,3.30
2018-06-25T14:37:40.049Z,2.67
2018-06-25T14:40:08.296Z,4.47
2018-06-25T14:42:36.573Z,2.40
2018-06-25T14:45:04.956Z,3.07
2018-06-25T14:47:33.176Z,2.53
2018-06-25T14:50:01.541Z,2.23
2018-06-25T14:52:29.911Z,3.40
2018-06-25T14:54:58.152Z,2.60
2018-06-25T14:57:26.396Z,2.40
2018-06-25T14:59:54.636Z,2.30
2018-06-25T15:02:22.914Z,2.50
2018-06-25T15:04:51.173Z,1.97
2018-06-25T15:07:19.423Z,2.03
2018-06-25T15:09:47.663Z,3.07
2018-06-25T15:12:15.928Z,1.90
2018-06-25T15:14:44.214Z,2.53
2018-06-25T15:17:12.500Z,3.40
2018-06-25T15:19:40.781Z,2.03
2018-06-25T15:22:09.074Z,3.47
2018-06-25T15:24:37.327Z,2.13
2018-06-25T15:27:05.596Z,1.87
2018-06-25T15:29:33.858Z,2.53
2018-06-25T15:32:02.126Z,3.43
2018-06-25T15:34:30.367Z,3.77
2018-06-25T15:36:58.669Z,6.47
2018-06-25T15:39:27.011Z,4.83
2018-06-25T15:41:55.281Z,2.53
2018-06-25T15:44:23.545Z,2.70
2018-06-25T15:46:51.775Z,5.53
2018-06-25T15:49:20.082Z,2.70
2018-06-25T15:51:48.321Z,3.03
2018-06-25T15:54:16.584Z,4.13
2018-06-25T15:56:44.842Z,3.80
2018-06-25T15:59:13.140Z,1.73
2018-06-25T16:01:41.388Z,1.97
2018-06-25T16:04:09.643Z,2.43
2018-06-25T16:06:37.944Z,3.30
2018-06-25T16:09:06.506Z,3.60
2018-06-25T16:11:34.783Z,6.07
2018-06-25T16:14:03.496Z,2.30
2018-06-25T16:16:31.823Z,4.43
2018-06-25T16:19:00.065Z,2.27
2018-06-25T16:21:28.317Z,2.33
2018-06-25T16:23:57.404Z,2.73
2018-06-25T16:26:25.670Z,1.90
2018-06-25T16:28:53.928Z,3.00
2018-06-25T16:31:22.223Z,2.07
2018-06-25T16:33:50.579Z,2.53
2018-06-25T16:36:18.879Z,2.10
2018-06-25T16:38:47.128Z,2.80
2018-06-25T16:41:15.389Z,1.63
2018-06-25T16:43:43.639Z,2.10
2018-06-25T16:46:11.887Z,3.20
2018-06-25T16:48:40.265Z,1.83
2018-06-25T16:51:08.528Z,2.43
2018-06-25T16:53:36.805Z,2.03
2018-06-25T16:56:05.092Z,2.33
2018-06-25T16:58:33.440Z,2.67
2018-06-25T17:01:01.688Z,3.13
2018-06-25T17:03:29.939Z,2.00
2018-06-25T17:05:58.205Z,2.07
2018-06-25T17:08:29.399Z,2.90
2018-06-25T17:10:58.214Z,2.77
2018-06-25T17:13:26.488Z,1.93
2018-06-25T17:15:54.769Z,2.57
2018-06-25T17:18:23.030Z,3.57
2018-06-25T17:20:51.329Z,2.23
2018-06-25T17:23:19.592Z,2.23
2018-06-25T17:25:47.852Z,1.93
2018-06-25T17:28:16.088Z,1.67
2018-06-25T17:30:44.360Z,2.50
2018-06-25T17:33:12.668Z,2.17
2018-06-25T17:35:40.909Z,2.53
2018-06-25T17:38:09.163Z,2.43
2018-06-25T17:40:37.481Z,2.40
2018-06-25T17:43:05.780Z,2.47
2018-06-25T17:45:34.072Z,3.27
2018-06-25T17:48:02.421Z,2.20
2018-06-25T17:50:30.680Z,2.87
2018-06-25T17:52:58.960Z,2.50
2018-06-25T17:55:27.245Z,2.43
2018-06-25T17:57:55.605Z,2.60
2018-06-25T18:00:23.997Z,2.17
2018-06-25T18:02:52.257Z,1.90
2018-06-25T18:05:20.537Z,3.30
2018-06-25T18:07:48.859Z,2.67
2018-06-25T18:10:17.121Z,3.10
2018-06-25T18:12:45.442Z,2.10
2018-06-25T18:15:13.706Z,2.10
2018-06-25T18:17:41.961Z,2.53
2018-06-25T18:20:10.243Z,3.70
2018-06-25T18:22:38.484Z,1.90
2018-06-25T18:25:06.772Z,2.60
2018-06-25T18:27:35.032Z,3.00
2018-06-25T18:30:03.345Z,3.60
2018-06-25T18:32:31.684Z,3.27
2018-06-25T18:35:00.022Z,2.10
2018-06-25T18:37:28.335Z,2.00
2018-06-25T18:39:56.615Z,2.57
2018-06-25T18:42:24.852Z,2.53
2018-06-25T18:44:53.134Z,3.67
2018-06-25T18:47:21.372Z,3.27
2018-06-25T18:49:49.764Z,3.33
2018-06-25T18:52:18.029Z,2.40
2018-06-25T18:54:46.287Z,2.50
2018-06-25T18:57:14.541Z,2.70
2018-06-25T18:59:42.789Z,3.30
2018-06-25T19:02:11.092Z,2.97
2018-06-25T19:04:39.356Z,3.37
2018-06-25T19:07:07.612Z,3.10
2018-06-25T19:09:35.862Z,3.97
2018-06-25T19:12:04.199Z,3.23
2018-06-25T19:14:32.379Z,4.93
2018-06-25T19:17:00.642Z,3.90
2018-06-25T19:19:28.913Z,6.40
2018-06-25T19:21:57.204Z,4.23
2018-06-25T19:24:25.458Z,3.47
2018-06-25T19:26:53.834Z,4.47
2018-06-25T19:29:22.104Z,2.77
2018-06-25T19:31:50.364Z,2.63
2018-06-25T19:34:18.638Z,5.50
2018-06-25T19:36:46.905Z,3.20
2018-06-25T19:39:15.217Z,3.57
2018-06-25T19:41:43.469Z,2.50
2018-06-25T19:44:12.274Z,2.90
2018-06-25T19:46:40.643Z,4.87
2018-06-25T19:49:09.308Z,3.77
2018-06-25T19:51:37.615Z,2.70
2018-06-25T19:54:06.180Z,3.50
2018-06-25T19:56:34.446Z,2.60
2018-06-25T19:59:02.748Z,3.87
2018-06-25T20:01:30.997Z,3.70
2018-06-25T20:03:59.276Z,2.97
2018-06-25T20:06:27.518Z,3.03
2018-06-25T20:08:55.791Z,3.13
2018-06-25T20:11:24.059Z,2.87
2018-06-25T20:13:52.340Z,2.87
2018-06-25T20:16:20.653Z,3.30
2018-06-25T20:18:48.962Z,3.53
2018-06-25T20:21:17.250Z,7.33
2018-06-25T20:23:45.508Z,4.23
2018-06-25T20:26:13.848Z,3.83
2018-06-25T20:28:42.038Z,4.67
2018-06-25T20:31:10.292Z,3.60
2018-06-25T20:33:38.560Z,3.20
2018-06-25T20:36:06.905Z,4.13
2018-06-25T20:38:35.140Z,4.23
2018-06-25T20:41:03.406Z,3.03
2018-06-25T20:43:31.659Z,3.20
2018-06-25T20:45:59.960Z,4.20
2018-06-25T20:48:28.225Z,3.50
2018-06-25T20:50:56.502Z,3.33
2018-06-25T20:55:59.312Z,3.17
2018-06-25T20:58:27.561Z,3.10
2018-06-25T21:00:55.817Z,2.60
2018-06-25T21:03:24.128Z,3.47
2018-06-25T21:05:52.444Z,3.43
2018-06-25T21:08:20.715Z,4.27
2018-06-25T21:10:48.985Z,3.10
2018-06-25T21:13:17.369Z,3.37
2018-06-25T21:15:45.655Z,4.57
2018-06-25T21:18:13.930Z,4.47
2018-06-25T21:20:42.206Z,3.30
2018-06-25T21:23:10.486Z,3.20
2018-06-25T21:25:38.765Z,4.00
2018-06-25T21:28:07.019Z,3.40
2018-06-25T21:30:35.296Z,3.00
2018-06-25T21:33:03.591Z,3.37
2018-06-25T21:35:31.845Z,4.73
2018-06-25T21:38:00.092Z,4.00
2018-06-25T21:40:28.370Z,3.20
2018-06-25T21:42:56.636Z,3.17
2018-06-25T21:45:24.916Z,3.93
2018-06-25T21:47:53.180Z,3.20
2018-06-25T21:50:21.443Z,3.30
2018-06-25T21:52:49.707Z,3.40
2018-06-25T21:55:17.981Z,3.17
2018-06-25T21:57:46.253Z,3.40
2018-06-25T22:00:14.536Z,3.57
2018-06-25T22:02:43.021Z,4.07
2018-06-25T22:05:11.287Z,4.60
2018-06-25T22:07:39.546Z,3.30
2018-06-25T22:10:08.165Z,3.40
2018-06-25T22:12:36.417Z,3.73
2018-06-25T22:15:05.172Z,3.60
2018-06-25T22:17:33.444Z,4.30
2018-06-25T22:20:01.714Z,2.97
2018-06-25T22:22:29.989Z,3.10
2018-06-25T22:24:58.265Z,2.90
2018-06-25T22:27:26.548Z,3.30
2018-06-25T22:29:54.808Z,6.43
2018-06-25T22:32:23.060Z,4.13
2018-06-25T22:34:51.333Z,4.37
2018-06-25T22:37:19.603Z,3.60
2018-06-25T22:39:47.936Z,3.90
2018-06-25T22:42:16.227Z,3.33
2018-06-25T22:44:44.536Z,3.67
2018-06-25T22:47:12.802Z,4.20
2018-06-25T22:49:41.045Z,4.83
2018-06-25T22:52:09.310Z,3.40
2018-06-25T22:54:37.566Z,3.63
2018-06-25T22:57:05.872Z,4.10
2018-06-25T22:59:34.123Z,5.80
2018-06-25T23:02:02.396Z,3.10
2018-06-25T23:04:30.657Z,4.60
2018-06-25T23:06:58.908Z,5.20
2018-06-25T23:09:27.181Z,4.07
2018-06-25T23:11:55.430Z,3.90
2018-06-25T23:14:23.685Z,3.57
2018-06-25T23:16:51.928Z,4.00
2018-06-25T23:19:20.207Z,4.00
2018-06-25T23:21:48.454Z,3.30
2018-06-25T23:24:16.719Z,4.87
2018-06-25T23:26:44.978Z,4.17
2018-06-25T23:29:13.252Z,3.70
2018-06-25T23:31:41.505Z,5.03
2018-06-25T23:34:09.765Z,4.40
2018-06-25T23:36:38.041Z,3.50
2018-06-25T23:39:08.388Z,3.97
2018-06-25T23:41:36.701Z,4.23
2018-06-25T23:44:04.984Z,4.33
2018-06-25T23:46:33.254Z,3.70
2018-06-25T23:49:01.512Z,4.37
2018-06-25T23:51:29.862Z,4.03
2018-06-25T23:53:58.124Z,3.80
2018-06-25T23:56:26.376Z,3.73
2018-06-25T23:58:54.657Z,4.50
